Izmir, Turkey
Current Conditions -  °F | °C
As of 12:50 AM on Wednesday 22 Oct 2014 (Local Time) from LTBJ Reporting Station
Clear Clear  
Wind Chill: 48°   Ceiling: Unl
Heat Index: 48°   Visibility: 6mi
Dew Point: 37°   Wind: 3mph
Humidity: 66%   Direction: 180°S
Pressure: 29.94"   Gusts: NA
Location:  38.43°N, 27.15°E
Report Text: LTBJ 212150Z 18003KT 150V220 CAVOK 09/03 Q1014 NOSIG
Loading
Personal Weather Stations






























Interactive Weather Map
Tropical Storm Tracking
New forecast layout! Learn more

10-Day Weather Forecast

Advertisements
Track Severe Weather on mobile